createdAt,value
2022-08-17T00:00:36.909Z,50.17
2022-08-17T00:03:17.798Z,49.40
2022-08-17T00:05:49.408Z,95.33
2022-08-17T00:08:38.562Z,70.53
2022-08-17T00:11:11.171Z,85.83
2022-08-17T00:14:02.030Z,61.83
2022-08-17T00:16:53.464Z,55.85
2022-08-17T00:19:25.594Z,52.43
2022-08-17T00:22:34.061Z,51.40
2022-08-17T00:24:49.484Z,52.07
2022-08-17T00:27:19.934Z,44.00
2022-08-17T00:29:49.013Z,36.33
2022-08-17T00:33:14.164Z,36.33
2022-08-17T00:35:09.963Z,37.83
2022-08-17T00:37:38.900Z,30.33
2022-08-17T00:40:10.178Z,41.83
2022-08-17T00:42:58.976Z,33.27
2022-08-17T00:45:28.421Z,31.77
2022-08-17T00:47:57.367Z,31.60
2022-08-17T00:50:26.599Z,33.57
2022-08-17T00:52:57.708Z,33.60
2022-08-17T00:55:27.984Z,33.33
2022-08-17T00:58:02.597Z,43.17
2022-08-17T01:00:35.637Z,37.33
2022-08-17T01:03:08.973Z,37.43
2022-08-17T01:05:42.314Z,36.90
2022-08-17T01:08:14.744Z,32.80
2022-08-17T01:10:59.457Z,42.50
2022-08-17T01:13:40.712Z,40.67
2022-08-17T01:16:17.390Z,34.93
2022-08-17T01:18:49.424Z,31.57
2022-08-17T01:21:26.030Z,30.47
2022-08-17T01:23:56.971Z,41.07
2022-08-17T01:26:26.033Z,38.93
2022-08-17T01:28:56.034Z,39.87
2022-08-17T01:31:29.229Z,34.33
2022-08-17T01:33:59.778Z,32.17
2022-08-17T01:36:31.530Z,28.77
2022-08-17T01:39:01.868Z,35.20
2022-08-17T01:41:31.289Z,38.37
2022-08-17T01:44:03.321Z,46.43
2022-08-17T01:46:35.087Z,43.77
2022-08-17T01:49:07.980Z,48.07
2022-08-17T01:51:37.214Z,45.90
2022-08-17T01:54:10.377Z,52.63
2022-08-17T01:56:47.842Z,56.57
2022-08-17T01:59:17.049Z,47.17
2022-08-17T02:01:46.947Z,50.50
2022-08-17T02:04:16.874Z,48.83
2022-08-17T02:06:53.715Z,43.90
2022-08-17T02:09:27.160Z,45.43
2022-08-17T02:12:39.444Z,44.37
2022-08-17T02:14:53.278Z,38.90
2022-08-17T02:17:22.370Z,37.07
2022-08-17T02:19:51.418Z,36.63
2022-08-17T02:22:20.959Z,36.47
2022-08-17T02:25:00.319Z,27.10
2022-08-17T02:27:31.208Z,25.67
2022-08-17T02:30:00.204Z,27.97
2022-08-17T02:32:29.632Z,25.20
2022-08-17T02:34:58.506Z,26.57
2022-08-17T02:37:27.974Z,27.43
2022-08-17T02:39:59.817Z,21.67
2022-08-17T02:42:31.715Z,26.47
2022-08-17T02:45:00.691Z,26.73
2022-08-17T02:47:30.033Z,41.03
2022-08-17T02:49:59.092Z,43.27
2022-08-17T02:52:41.937Z,32.50
2022-08-17T02:55:16.631Z,31.67
2022-08-17T02:57:46.032Z,28.00
2022-08-17T03:00:18.359Z,37.60
2022-08-17T03:02:47.975Z,36.63
2022-08-17T03:05:22.294Z,49.10
2022-08-17T03:07:52.078Z,75.67
2022-08-17T03:10:24.868Z,71.20
2022-08-17T03:12:56.230Z,96.60
2022-08-17T03:15:29.085Z,85.93
2022-08-17T03:17:58.633Z,56.33
2022-08-17T03:20:29.219Z,58.97
2022-08-17T03:23:01.995Z,70.57
2022-08-17T03:25:35.843Z,70.27
2022-08-17T03:28:07.070Z,50.73
2022-08-17T03:30:54.825Z,80.40
2022-08-17T03:33:24.279Z,76.40
2022-08-17T03:35:53.855Z,66.20
2022-08-17T03:38:23.332Z,60.20
2022-08-17T03:40:57.338Z,68.27
2022-08-17T03:43:30.361Z,75.10
2022-08-17T03:46:32.457Z,81.50
2022-08-17T03:49:23.800Z,71.27
2022-08-17T03:52:10.276Z,93.63
2022-08-17T03:54:57.108Z,109.50
2022-08-17T03:57:28.415Z,80.17
2022-08-17T04:00:17.351Z,85.67
2022-08-17T04:02:46.805Z,106.47
2022-08-17T04:05:16.355Z,68.70
2022-08-17T04:07:45.754Z,72.53
2022-08-17T04:10:14.938Z,80.23
2022-08-17T04:12:50.852Z,82.77
2022-08-17T04:15:20.290Z,92.90
2022-08-17T04:17:49.348Z,57.20
2022-08-17T04:20:20.020Z,55.70
2022-08-17T04:22:59.586Z,45.33
2022-08-17T04:25:29.815Z,47.20
2022-08-17T04:28:01.005Z,55.87
2022-08-17T04:30:32.296Z,60.37
2022-08-17T04:33:24.226Z,58.87
2022-08-17T04:35:55.820Z,71.80
2022-08-17T04:38:27.953Z,64.23
2022-08-17T04:41:15.440Z,42.20
2022-08-17T04:43:47.099Z,57.93
2022-08-17T04:46:25.112Z,72.60
2022-08-17T04:48:56.229Z,89.47
2022-08-17T04:51:28.173Z,48.13
2022-08-17T04:53:59.778Z,43.00
2022-08-17T04:56:30.083Z,52.57
2022-08-17T04:59:04.969Z,36.33
2022-08-17T05:01:36.705Z,50.37
2022-08-17T05:04:33.283Z,53.00
2022-08-17T05:06:59.364Z,37.20
2022-08-17T05:09:29.478Z,45.13
2022-08-17T05:12:02.639Z,39.13
2022-08-17T05:14:33.966Z,51.30
2022-08-17T05:17:07.170Z,50.20
2022-08-17T05:19:41.288Z,66.10
2022-08-17T05:22:10.399Z,47.27
2022-08-17T05:24:43.748Z,36.83
2022-08-17T05:27:24.575Z,43.90
2022-08-17T05:29:59.847Z,43.37
2022-08-17T05:32:48.325Z,35.13
2022-08-17T05:35:17.431Z,48.47
2022-08-17T05:37:46.338Z,40.20
2022-08-17T05:40:15.814Z,37.83
2022-08-17T05:42:44.856Z,40.37
2022-08-17T05:45:17.080Z,37.55
2022-08-17T05:48:07.466Z,33.80
2022-08-17T05:50:49.166Z,29.63
2022-08-17T05:53:24.377Z,36.60
2022-08-17T05:56:04.101Z,36.73
2022-08-17T05:58:39.323Z,119.13
2022-08-17T06:01:19.217Z,33.50
2022-08-17T06:03:55.340Z,29.23
2022-08-17T06:06:40.206Z,30.07
2022-08-17T06:12:01.570Z,72.30
2022-08-17T06:14:51.341Z,40.87
2022-08-17T06:17:27.333Z,41.80
2022-08-17T06:19:59.908Z,56.00
2022-08-17T06:22:34.380Z,41.05
2022-08-17T06:25:10.118Z,49.53
2022-08-17T06:27:45.029Z,35.40
2022-08-17T06:30:17.286Z,42.27
2022-08-17T06:32:50.668Z,60.07
2022-08-17T06:35:30.125Z,41.23
2022-08-17T06:38:09.658Z,43.87
2022-08-17T06:41:21.911Z,46.40
2022-08-17T06:44:04.631Z,71.60
2022-08-17T06:46:39.554Z,55.13
2022-08-17T06:49:22.110Z,49.73
2022-08-17T06:51:57.851Z,34.03
2022-08-17T06:54:36.952Z,41.13
2022-08-17T06:57:15.376Z,50.80
2022-08-17T06:59:55.405Z,52.57
2022-08-17T07:02:52.589Z,58.07
2022-08-17T07:05:26.922Z,59.13
2022-08-17T07:08:04.291Z,54.27
2022-08-17T07:10:44.207Z,51.20
2022-08-17T07:13:25.924Z,53.23
2022-08-17T07:16:00.567Z,37.90
2022-08-17T07:18:33.363Z,44.17
2022-08-17T07:21:14.180Z,53.00
2022-08-17T07:24:02.305Z,59.70
2022-08-17T07:26:31.315Z,48.80
2022-08-17T07:36:47.274Z,35.03
2022-08-17T07:39:28.879Z,28.63
2022-08-17T07:52:59.398Z,30.73
2022-08-17T07:55:31.742Z,27.27
2022-08-17T07:58:02.058Z,49.90
2022-08-17T08:00:33.065Z,25.03
2022-08-17T08:03:16.747Z,26.73
2022-08-17T08:05:57.870Z,15.17
2022-08-17T08:08:32.579Z,15.70
2022-08-17T08:11:09.855Z,15.17
2022-08-17T08:13:42.845Z,20.03
2022-08-17T08:16:24.587Z,14.00
2022-08-17T08:18:57.528Z,14.07
2022-08-17T08:21:47.968Z,12.87
2022-08-17T08:24:41.683Z,13.37
2022-08-17T08:27:22.414Z,11.70
2022-08-17T08:29:56.797Z,12.10
2022-08-17T08:32:43.116Z,14.27
2022-08-17T08:35:18.512Z,39.43
2022-08-17T08:37:55.822Z,29.77
2022-08-17T08:40:44.601Z,18.67
2022-08-17T08:43:23.814Z,22.03
2022-08-17T08:45:59.001Z,18.23
2022-08-17T08:48:56.837Z,20.47
2022-08-17T08:51:35.534Z,17.03
2022-08-17T08:54:35.982Z,23.30
2022-08-17T08:57:26.826Z,17.53
2022-08-17T09:00:12.925Z,54.47
2022-08-17T09:03:19.475Z,17.97
2022-08-17T09:06:33.291Z,21.73
2022-08-17T09:09:19.279Z,21.80
2022-08-17T09:12:02.850Z,15.97
2022-08-17T09:14:47.202Z,13.63
2022-08-17T09:17:41.340Z,18.83
2022-08-17T09:20:28.130Z,14.00
2022-08-17T09:23:03.564Z,10.67
2022-08-17T09:25:44.407Z,13.03
2022-08-17T09:28:20.591Z,14.13
2022-08-17T09:31:01.882Z,16.85
2022-08-17T09:33:35.387Z,14.60
2022-08-17T09:36:08.718Z,17.60
2022-08-17T09:38:46.551Z,36.33
2022-08-17T09:41:25.953Z,21.67
2022-08-17T09:44:04.061Z,13.17
2022-08-17T09:46:39.072Z,16.83
2022-08-17T09:49:15.309Z,17.07
2022-08-17T09:51:50.283Z,15.93
2022-08-17T09:54:40.864Z,22.80
2022-08-17T09:57:30.456Z,15.60
2022-08-17T10:00:17.384Z,13.87
2022-08-17T10:03:28.455Z,13.20
2022-08-17T10:06:31.899Z,23.70
2022-08-17T10:09:08.728Z,15.03
2022-08-17T10:12:06.283Z,24.10
2022-08-17T10:14:45.014Z,21.27
2022-08-17T10:17:28.155Z,27.00
2022-08-17T10:20:04.404Z,16.27
2022-08-17T10:22:59.275Z,16.00
2022-08-17T10:25:55.021Z,15.83
2022-08-17T10:28:30.243Z,19.87
2022-08-17T10:31:33.305Z,22.40
2022-08-17T10:34:40.360Z,21.77
2022-08-17T10:37:25.346Z,17.07
2022-08-17T10:40:04.159Z,14.10
2022-08-17T10:42:38.116Z,14.03
2022-08-17T10:45:32.197Z,11.57
2022-08-17T10:48:06.861Z,13.37
2022-08-17T10:51:09.229Z,14.70
2022-08-17T10:54:00.656Z,15.40
2022-08-17T10:56:47.743Z,15.23
2022-08-17T10:59:54.838Z,10.60
2022-08-17T11:02:28.366Z,12.07
2022-08-17T11:05:22.470Z,25.47
2022-08-17T11:08:30.740Z,13.70
2022-08-17T11:11:24.075Z,10.87
2022-08-17T11:14:11.373Z,15.05
2022-08-17T11:16:53.447Z,10.48
2022-08-17T11:19:52.866Z,19.10
2022-08-17T11:22:52.936Z,15.80
2022-08-17T11:25:33.028Z,13.38
2022-08-17T11:28:09.417Z,23.90
2022-08-17T11:30:52.330Z,20.40
2022-08-17T11:33:58.291Z,8.75
2022-08-17T11:37:10.285Z,17.42
2022-08-17T11:39:52.887Z,13.07
2022-08-17T11:42:34.678Z,10.98
2022-08-17T11:45:19.544Z,19.17
2022-08-17T11:48:30.827Z,25.02
2022-08-17T11:51:27.256Z,14.27
2022-08-17T11:57:00.918Z,33.70
2022-08-17T11:59:55.707Z,27.02
2022-08-17T12:02:47.368Z,44.28
2022-08-17T12:05:33.140Z,28.80
2022-08-17T12:08:18.732Z,16.00
2022-08-17T12:11:00.007Z,14.52
2022-08-17T12:13:39.332Z,18.55
2022-08-17T12:16:10.252Z,18.75
2022-08-17T12:18:42.182Z,18.58
2022-08-17T12:21:24.929Z,25.33
2022-08-17T12:24:00.443Z,23.23
2022-08-17T12:26:33.599Z,12.00
2022-08-17T12:29:05.145Z,20.25
2022-08-17T12:31:38.195Z,21.25
2022-08-17T12:34:07.230Z,17.90
2022-08-17T12:36:37.589Z,13.82
2022-08-17T12:39:14.095Z,18.33
2022-08-17T12:41:52.462Z,13.48
2022-08-17T12:44:23.608Z,41.40
2022-08-17T12:47:00.672Z,19.83
2022-08-17T12:49:36.327Z,22.08
2022-08-17T12:52:16.364Z,14.75
2022-08-17T12:54:55.610Z,18.70
2022-08-17T12:57:28.106Z,10.27
2022-08-17T13:00:01.056Z,19.95
2022-08-17T13:02:34.076Z,18.92
2022-08-17T13:05:27.774Z,15.18
2022-08-17T13:08:00.803Z,18.35
2022-08-17T13:10:58.146Z,25.80
2022-08-17T13:13:30.092Z,12.63
2022-08-17T13:16:01.023Z,26.88
2022-08-17T13:18:42.099Z,14.75
2022-08-17T13:21:20.161Z,26.30
2022-08-17T13:24:01.977Z,15.27
2022-08-17T13:26:35.717Z,26.35
2022-08-17T13:29:07.929Z,25.60
2022-08-17T13:31:49.802Z,15.68
2022-08-17T13:35:01.652Z,31.17
2022-08-17T13:37:34.069Z,25.65
2022-08-17T13:40:31.715Z,15.80
2022-08-17T13:43:03.531Z,16.77
2022-08-17T13:45:51.587Z,17.25
2022-08-17T13:48:29.936Z,14.95
2022-08-17T13:51:27.841Z,19.27
2022-08-17T13:54:25.899Z,14.37
2022-08-17T13:57:03.748Z,20.40
2022-08-17T13:59:54.992Z,16.50
2022-08-17T14:02:28.405Z,9.17
2022-08-17T14:05:00.820Z,15.73
2022-08-17T14:07:35.632Z,11.50
2022-08-17T14:10:11.878Z,11.47
2022-08-17T14:12:44.079Z,31.33
2022-08-17T14:15:55.601Z,17.03
2022-08-17T14:18:49.879Z,19.73
2022-08-17T14:21:12.112Z,21.37
2022-08-17T14:23:41.302Z,28.20
2022-08-17T14:26:36.671Z,17.40
2022-08-17T14:29:14.996Z,20.43
2022-08-17T14:31:53.295Z,32.00
2022-08-17T14:34:24.475Z,37.67
2022-08-17T14:36:53.918Z,44.00
2022-08-17T14:39:22.846Z,16.40
2022-08-17T14:41:53.194Z,18.17
2022-08-17T14:44:23.736Z,38.83
2022-08-17T14:46:53.101Z,24.83
2022-08-17T14:49:22.025Z,27.43
2022-08-17T14:51:51.445Z,40.20
2022-08-17T14:57:23.530Z,21.00
2022-08-17T14:59:55.623Z,19.23
2022-08-17T15:02:30.422Z,17.80
2022-08-17T15:05:04.197Z,26.87
2022-08-17T15:07:33.422Z,28.00
2022-08-17T15:10:02.782Z,39.87
2022-08-17T15:12:34.070Z,54.17
2022-08-17T15:15:07.424Z,30.67
2022-08-17T15:17:45.186Z,53.60
2022-08-17T15:20:16.833Z,35.83
2022-08-17T15:22:50.046Z,45.20
2022-08-17T15:25:22.322Z,48.10
2022-08-17T15:27:51.808Z,37.43
2022-08-17T15:40:36.734Z,71.70
2022-08-17T15:43:08.034Z,44.67
2022-08-17T15:45:38.461Z,46.60
2022-08-17T15:48:07.685Z,56.03
2022-08-17T15:50:36.997Z,47.63
2022-08-17T15:53:06.038Z,39.47
2022-08-17T15:55:35.533Z,40.30
2022-08-17T15:58:04.629Z,20.60
2022-08-17T16:00:39.777Z,42.50
2022-08-17T16:04:01.141Z,96.70
2022-08-17T16:06:15.175Z,43.57
2022-08-17T16:08:46.345Z,42.70
2022-08-17T16:11:16.548Z,58.40
2022-08-17T16:19:12.633Z,29.83
2022-08-17T16:21:42.724Z,38.03
2022-08-17T16:24:12.838Z,50.43
2022-08-17T16:26:42.801Z,60.50
2022-08-17T16:29:11.972Z,41.50
2022-08-17T16:31:42.038Z,41.47
2022-08-17T16:34:17.834Z,55.83
2022-08-17T16:36:55.763Z,88.77
2022-08-17T16:39:44.003Z,62.83
2022-08-17T16:42:27.368Z,69.77
2022-08-17T16:45:18.701Z,26.47
2022-08-17T16:47:49.251Z,45.93
2022-08-17T16:50:21.700Z,31.27
2022-08-17T16:52:51.325Z,43.03
2022-08-17T16:55:22.447Z,54.00
2022-08-17T16:57:51.585Z,40.30
2022-08-17T17:00:21.187Z,43.53
2022-08-17T17:02:51.222Z,40.27
2022-08-17T17:05:51.426Z,43.87
2022-08-17T17:08:30.571Z,52.63
2022-08-17T17:11:09.084Z,48.50
2022-08-17T17:13:42.489Z,49.23
2022-08-17T17:16:19.573Z,64.23
2022-08-17T17:19:15.382Z,57.43
2022-08-17T17:21:52.194Z,86.50
2022-08-17T17:24:30.114Z,92.87
2022-08-17T17:27:15.450Z,69.80
2022-08-17T17:29:57.479Z,55.73
2022-08-17T17:32:38.039Z,53.77
2022-08-17T17:35:18.225Z,50.23
2022-08-17T17:37:49.371Z,74.80
2022-08-17T17:40:23.282Z,109.10
2022-08-17T17:42:55.281Z,101.97
2022-08-17T17:45:27.448Z,131.83
2022-08-17T17:47:57.086Z,135.27
2022-08-17T17:50:34.669Z,104.50
2022-08-17T17:53:10.296Z,95.70
2022-08-17T17:55:50.516Z,130.57
2022-08-17T17:58:31.479Z,107.63
2022-08-17T18:01:16.800Z,105.83
2022-08-17T18:04:22.883Z,79.40
2022-08-17T18:07:03.940Z,79.63
2022-08-17T18:10:19.764Z,76.87
2022-08-17T18:13:03.817Z,71.33
2022-08-17T18:15:38.632Z,55.53
2022-08-17T18:18:37.869Z,49.43
2022-08-17T18:21:17.108Z,61.17
2022-08-17T18:23:57.982Z,87.90
2022-08-17T18:26:48.544Z,65.70
2022-08-17T18:29:34.573Z,55.60
2022-08-17T18:32:31.397Z,62.87
2022-08-17T18:35:03.684Z,60.70
2022-08-17T18:37:39.598Z,52.80
2022-08-17T18:40:39.021Z,33.73
2022-08-17T18:43:14.087Z,30.77
2022-08-17T18:45:48.122Z,34.13
2022-08-17T18:48:23.926Z,59.87
2022-08-17T18:50:54.637Z,66.00
2022-08-17T18:53:39.171Z,68.60
2022-08-17T18:56:30.686Z,46.73
2022-08-17T18:59:35.030Z,43.57
2022-08-17T19:02:39.107Z,52.50
2022-08-17T19:05:30.634Z,97.90
2022-08-17T19:08:20.067Z,82.30
2022-08-17T19:10:52.705Z,78.37
2022-08-17T19:13:27.021Z,63.80
2022-08-17T19:16:14.612Z,91.60
2022-08-17T19:18:50.040Z,63.13
2022-08-17T19:21:25.079Z,52.27
2022-08-17T19:23:58.862Z,41.83
2022-08-17T19:26:53.561Z,40.77
2022-08-17T19:29:35.644Z,42.13
2022-08-17T19:32:16.319Z,51.47
2022-08-17T19:34:48.396Z,46.07
2022-08-17T19:37:37.539Z,43.30
2022-08-17T19:40:41.906Z,99.87
2022-08-17T19:43:14.868Z,51.37
2022-08-17T19:45:56.404Z,40.17
2022-08-17T19:48:38.339Z,60.67
2022-08-17T19:51:12.655Z,38.43
2022-08-17T19:54:05.026Z,28.80
2022-08-17T19:56:45.089Z,24.00
2022-08-17T19:59:21.277Z,28.80
2022-08-17T20:01:54.544Z,27.40
2022-08-17T20:04:37.519Z,19.57
2022-08-17T20:07:16.560Z,39.13
2022-08-17T20:09:51.697Z,17.90
2022-08-17T20:12:24.894Z,21.77
2022-08-17T20:14:57.485Z,20.17
